sensor_id;sensor_type;location;lat;lon;timestamp;P1;durP1;ratioP1;P2;durP2;ratioP2
9974;SDS011;5028;50.974;4.968;2022-11-20T00:01:33;16.03;;;14.33;;
9974;SDS011;5028;50.974;4.968;2022-11-20T00:04:03;16.77;;;14.90;;
9974;SDS011;5028;50.974;4.968;2022-11-20T00:06:39;16.63;;;14.17;;
9974;SDS011;5028;50.974;4.968;2022-11-20T00:09:09;17.80;;;14.77;;
9974;SDS011;5028;50.974;4.968;2022-11-20T00:11:45;19.60;;;15.70;;
9974;SDS011;5028;50.974;4.968;2022-11-20T00:14:13;16.70;;;14.87;;
9974;SDS011;5028;50.974;4.968;2022-11-20T00:16:47;16.90;;;14.70;;
9974;SDS011;5028;50.974;4.968;2022-11-20T00:19:17;17.53;;;15.50;;
9974;SDS011;5028;50.974;4.968;2022-11-20T00:21:51;16.50;;;14.77;;
9974;SDS011;5028;50.974;4.968;2022-11-20T00:24:21;17.60;;;15.60;;
9974;SDS011;5028;50.974;4.968;2022-11-20T00:26:56;16.97;;;14.77;;
9974;SDS011;5028;50.974;4.968;2022-11-20T00:29:25;16.33;;;14.23;;
9974;SDS011;5028;50.974;4.968;2022-11-20T00:32:00;15.87;;;14.27;;
9974;SDS011;5028;50.974;4.968;2022-11-20T00:34:30;16.03;;;14.33;;
9974;SDS011;5028;50.974;4.968;2022-11-20T00:37:04;19.03;;;14.57;;
9974;SDS011;5028;50.974;4.968;2022-11-20T00:39:32;17.67;;;15.70;;
9974;SDS011;5028;50.974;4.968;2022-11-20T00:42:07;19.10;;;15.93;;
9974;SDS011;5028;50.974;4.968;2022-11-20T00:44:35;18.33;;;16.03;;
9974;SDS011;5028;50.974;4.968;2022-11-20T00:47:10;18.40;;;16.37;;
9974;SDS011;5028;50.974;4.968;2022-11-20T00:49:40;16.97;;;15.13;;
9974;SDS011;5028;50.974;4.968;2022-11-20T00:52:15;18.83;;;15.50;;
9974;SDS011;5028;50.974;4.968;2022-11-20T00:54:44;16.97;;;14.90;;
9974;SDS011;5028;50.974;4.968;2022-11-20T00:57:26;18.80;;;16.80;;
9974;SDS011;5028;50.974;4.968;2022-11-20T01:00:08;17.50;;;15.67;;
9974;SDS011;5028;50.974;4.968;2022-11-20T01:02:43;18.77;;;15.87;;
9974;SDS011;5028;50.974;4.968;2022-11-20T01:05:13;19.00;;;16.70;;
9974;SDS011;5028;50.974;4.968;2022-11-20T01:07:48;19.57;;;16.73;;
9974;SDS011;5028;50.974;4.968;2022-11-20T01:10:17;20.27;;;18.20;;
9974;SDS011;5028;50.974;4.968;2022-11-20T01:12:52;20.60;;;18.00;;
9974;SDS011;5028;50.974;4.968;2022-11-20T01:15:34;19.03;;;16.53;;
9974;SDS011;5028;50.974;4.968;2022-11-20T01:18:09;20.00;;;17.90;;
9974;SDS011;5028;50.974;4.968;2022-11-20T01:20:39;19.87;;;17.77;;
9974;SDS011;5028;50.974;4.968;2022-11-20T01:23:14;17.93;;;16.03;;
9974;SDS011;5028;50.974;4.968;2022-11-20T01:25:43;19.27;;;17.27;;
9974;SDS011;5028;50.974;4.968;2022-11-20T01:28:17;21.20;;;16.90;;
9974;SDS011;5028;50.974;4.968;2022-11-20T01:30:45;20.07;;;17.93;;
9974;SDS011;5028;50.974;4.968;2022-11-20T01:33:20;19.97;;;17.87;;
9974;SDS011;5028;50.974;4.968;2022-11-20T01:35:50;20.10;;;18.00;;
9974;SDS011;5028;50.974;4.968;2022-11-20T01:38:26;21.97;;;18.90;;
9974;SDS011;5028;50.974;4.968;2022-11-20T01:40:55;21.27;;;17.43;;
9974;SDS011;5028;50.974;4.968;2022-11-20T01:43:29;23.10;;;17.67;;
9974;SDS011;5028;50.974;4.968;2022-11-20T01:46:01;20.50;;;17.33;;
9974;SDS011;5028;50.974;4.968;2022-11-20T01:48:39;19.90;;;16.47;;
9974;SDS011;5028;50.974;4.968;2022-11-20T01:51:15;18.53;;;16.57;;
9974;SDS011;5028;50.974;4.968;2022-11-20T01:53:55;19.83;;;17.70;;
9974;SDS011;5028;50.974;4.968;2022-11-20T01:56:25;19.63;;;17.40;;
9974;SDS011;5028;50.974;4.968;2022-11-20T01:59:08;18.00;;;16.07;;
9974;SDS011;5028;50.974;4.968;2022-11-20T02:01:40;19.53;;;16.50;;
9974;SDS011;5028;50.974;4.968;2022-11-20T02:04:15;18.27;;;16.43;;
9974;SDS011;5028;50.974;4.968;2022-11-20T02:06:47;18.80;;;15.90;;
9974;SDS011;5028;50.974;4.968;2022-11-20T02:09:25;17.20;;;15.40;;
9974;SDS011;5028;50.974;4.968;2022-11-20T02:11:54;16.77;;;14.87;;
9974;SDS011;5028;50.974;4.968;2022-11-20T02:14:30;17.60;;;15.43;;
9974;SDS011;5028;50.974;4.968;2022-11-20T02:16:58;18.17;;;15.77;;
9974;SDS011;5028;50.974;4.968;2022-11-20T02:19:32;17.43;;;15.53;;
9974;SDS011;5028;50.974;4.968;2022-11-20T02:22:04;16.63;;;14.60;;
9974;SDS011;5028;50.974;4.968;2022-11-20T02:24:45;17.73;;;15.40;;
9974;SDS011;5028;50.974;4.968;2022-11-20T02:27:16;18.33;;;15.73;;
9974;SDS011;5028;50.974;4.968;2022-11-20T02:29:51;20.27;;;15.97;;
9974;SDS011;5028;50.974;4.968;2022-11-20T02:32:23;19.83;;;16.53;;
9974;SDS011;5028;50.974;4.968;2022-11-20T02:35:05;17.67;;;15.77;;
9974;SDS011;5028;50.974;4.968;2022-11-20T02:37:35;18.53;;;15.80;;
9974;SDS011;5028;50.974;4.968;2022-11-20T02:40:15;18.03;;;16.23;;
9974;SDS011;5028;50.974;4.968;2022-11-20T02:42:43;17.00;;;15.20;;
9974;SDS011;5028;50.974;4.968;2022-11-20T02:45:18;17.73;;;15.00;;
9974;SDS011;5028;50.974;4.968;2022-11-20T02:47:47;17.07;;;15.33;;
9974;SDS011;5028;50.974;4.968;2022-11-20T02:50:21;17.30;;;15.07;;
9974;SDS011;5028;50.974;4.968;2022-11-20T02:52:50;17.00;;;15.03;;
9974;SDS011;5028;50.974;4.968;2022-11-20T02:55:26;17.27;;;15.03;;
9974;SDS011;5028;50.974;4.968;2022-11-20T02:57:55;16.77;;;15.07;;
9974;SDS011;5028;50.974;4.968;2022-11-20T03:00:43;16.07;;;14.40;;
9974;SDS011;5028;50.974;4.968;2022-11-20T03:03:11;18.83;;;15.43;;
9974;SDS011;5028;50.974;4.968;2022-11-20T03:05:46;16.93;;;15.13;;
9974;SDS011;5028;50.974;4.968;2022-11-20T03:08:14;16.80;;;15.10;;
9974;SDS011;5028;50.974;4.968;2022-11-20T03:10:51;19.47;;;15.37;;
9974;SDS011;5028;50.974;4.968;2022-11-20T03:13:20;15.77;;;14.17;;
9974;SDS011;5028;50.974;4.968;2022-11-20T03:15:54;17.30;;;15.50;;
9974;SDS011;5028;50.974;4.968;2022-11-20T03:18:22;16.20;;;14.50;;
9974;SDS011;5028;50.974;4.968;2022-11-20T03:20:57;17.00;;;15.30;;
9974;SDS011;5028;50.974;4.968;2022-11-20T03:23:28;16.97;;;15.27;;
9974;SDS011;5028;50.974;4.968;2022-11-20T03:26:08;17.37;;;15.53;;
9974;SDS011;5028;50.974;4.968;2022-11-20T03:28:38;17.20;;;15.30;;
9974;SDS011;5028;50.974;4.968;2022-11-20T03:31:13;18.93;;;15.50;;
9974;SDS011;5028;50.974;4.968;2022-11-20T03:33:43;17.47;;;15.60;;
9974;SDS011;5028;50.974;4.968;2022-11-20T03:36:19;16.87;;;15.07;;
9974;SDS011;5028;50.974;4.968;2022-11-20T03:38:48;18.10;;;16.23;;
9974;SDS011;5028;50.974;4.968;2022-11-20T03:41:25;17.50;;;15.53;;
9974;SDS011;5028;50.974;4.968;2022-11-20T03:43:56;20.17;;;16.30;;
9974;SDS011;5028;50.974;4.968;2022-11-20T03:46:32;18.57;;;16.67;;
9974;SDS011;5028;50.974;4.968;2022-11-20T03:49:01;18.87;;;16.87;;
9974;SDS011;5028;50.974;4.968;2022-11-20T03:51:36;18.17;;;16.27;;
9974;SDS011;5028;50.974;4.968;2022-11-20T03:54:06;20.97;;;16.90;;
9974;SDS011;5028;50.974;4.968;2022-11-20T03:56:44;19.20;;;17.10;;
9974;SDS011;5028;50.974;4.968;2022-11-20T03:59:12;20.87;;;17.03;;
9974;SDS011;5028;50.974;4.968;2022-11-20T04:02:00;19.27;;;16.33;;
9974;SDS011;5028;50.974;4.968;2022-11-20T04:04:28;20.37;;;18.20;;
9974;SDS011;5028;50.974;4.968;2022-11-20T04:07:03;19.73;;;17.47;;
9974;SDS011;5028;50.974;4.968;2022-11-20T04:09:31;27.13;;;19.47;;
9974;SDS011;5028;50.974;4.968;2022-11-20T04:12:08;21.30;;;17.83;;
9974;SDS011;5028;50.974;4.968;2022-11-20T04:14:36;21.77;;;17.97;;
9974;SDS011;5028;50.974;4.968;2022-11-20T04:17:11;21.50;;;18.30;;
9974;SDS011;5028;50.974;4.968;2022-11-20T04:19:39;23.70;;;18.20;;
9974;SDS011;5028;50.974;4.968;2022-11-20T04:22:14;20.40;;;18.30;;
9974;SDS011;5028;50.974;4.968;2022-11-20T04:24:42;21.43;;;19.13;;
9974;SDS011;5028;50.974;4.968;2022-11-20T04:27:19;20.20;;;18.00;;
9974;SDS011;5028;50.974;4.968;2022-11-20T04:29:48;22.83;;;19.07;;
9974;SDS011;5028;50.974;4.968;2022-11-20T04:32:22;20.93;;;18.63;;
9974;SDS011;5028;50.974;4.968;2022-11-20T04:34:52;24.47;;;18.97;;
9974;SDS011;5028;50.974;4.968;2022-11-20T04:37:26;23.40;;;19.20;;
9974;SDS011;5028;50.974;4.968;2022-11-20T04:39:55;25.07;;;19.23;;
9974;SDS011;5028;50.974;4.968;2022-11-20T04:42:31;22.87;;;19.47;;
9974;SDS011;5028;50.974;4.968;2022-11-20T04:44:59;23.87;;;20.30;;
9974;SDS011;5028;50.974;4.968;2022-11-20T04:47:34;26.37;;;21.23;;
9974;SDS011;5028;50.974;4.968;2022-11-20T04:50:03;27.60;;;20.47;;
9974;SDS011;5028;50.974;4.968;2022-11-20T04:52:38;26.13;;;20.23;;
9974;SDS011;5028;50.974;4.968;2022-11-20T04:55:07;28.60;;;21.47;;
9974;SDS011;5028;50.974;4.968;2022-11-20T04:57:44;28.50;;;22.20;;
9974;SDS011;5028;50.974;4.968;2022-11-20T05:00:25;34.67;;;23.63;;
9974;SDS011;5028;50.974;4.968;2022-11-20T05:02:59;32.90;;;24.30;;
9974;SDS011;5028;50.974;4.968;2022-11-20T05:05:28;27.90;;;21.03;;
9974;SDS011;5028;50.974;4.968;2022-11-20T05:08:02;29.73;;;21.70;;
9974;SDS011;5028;50.974;4.968;2022-11-20T05:10:31;30.77;;;22.20;;
9974;SDS011;5028;50.974;4.968;2022-11-20T05:13:08;28.87;;;21.73;;
9974;SDS011;5028;50.974;4.968;2022-11-20T05:15:36;33.37;;;23.17;;
9974;SDS011;5028;50.974;4.968;2022-11-20T05:18:11;29.70;;;23.37;;
9974;SDS011;5028;50.974;4.968;2022-11-20T05:20:40;34.63;;;24.13;;
9974;SDS011;5028;50.974;4.968;2022-11-20T05:23:14;31.60;;;22.57;;
9974;SDS011;5028;50.974;4.968;2022-11-20T05:25:42;33.60;;;23.30;;
9974;SDS011;5028;50.974;4.968;2022-11-20T05:28:25;32.93;;;23.53;;
9974;SDS011;5028;50.974;4.968;2022-11-20T05:30:55;31.00;;;22.60;;
9974;SDS011;5028;50.974;4.968;2022-11-20T05:33:29;29.10;;;22.57;;
9974;SDS011;5028;50.974;4.968;2022-11-20T05:35:57;28.83;;;20.80;;
9974;SDS011;5028;50.974;4.968;2022-11-20T05:38:32;31.17;;;21.50;;
9974;SDS011;5028;50.974;4.968;2022-11-20T05:41:05;30.10;;;21.77;;
9974;SDS011;5028;50.974;4.968;2022-11-20T05:43:42;32.63;;;22.23;;
9974;SDS011;5028;50.974;4.968;2022-11-20T05:46:13;32.47;;;23.13;;
9974;SDS011;5028;50.974;4.968;2022-11-20T05:48:54;29.97;;;21.93;;
9974;SDS011;5028;50.974;4.968;2022-11-20T05:51:23;31.47;;;22.47;;
9974;SDS011;5028;50.974;4.968;2022-11-20T05:53:58;31.60;;;22.50;;
9974;SDS011;5028;50.974;4.968;2022-11-20T05:56:27;30.03;;;21.63;;
9974;SDS011;5028;50.974;4.968;2022-11-20T05:59:03;30.47;;;22.47;;
9974;SDS011;5028;50.974;4.968;2022-11-20T06:01:45;28.73;;;22.27;;
9974;SDS011;5028;50.974;4.968;2022-11-20T06:04:13;30.60;;;22.20;;
9974;SDS011;5028;50.974;4.968;2022-11-20T06:06:47;30.57;;;22.30;;
9974;SDS011;5028;50.974;4.968;2022-11-20T06:09:16;31.23;;;23.10;;
9974;SDS011;5028;50.974;4.968;2022-11-20T06:11:50;32.90;;;23.23;;
9974;SDS011;5028;50.974;4.968;2022-11-20T06:14:20;28.63;;;22.40;;
9974;SDS011;5028;50.974;4.968;2022-11-20T06:16:55;29.93;;;22.13;;
9974;SDS011;5028;50.974;4.968;2022-11-20T06:19:24;30.07;;;22.37;;
9974;SDS011;5028;50.974;4.968;2022-11-20T06:21:58;30.63;;;21.93;;
9974;SDS011;5028;50.974;4.968;2022-11-20T06:24:27;29.83;;;21.80;;
9974;SDS011;5028;50.974;4.968;2022-11-20T06:27:01;28.27;;;21.03;;
9974;SDS011;5028;50.974;4.968;2022-11-20T06:29:31;28.33;;;21.57;;
9974;SDS011;5028;50.974;4.968;2022-11-20T06:32:05;27.73;;;20.70;;
9974;SDS011;5028;50.974;4.968;2022-11-20T06:34:34;27.67;;;22.13;;
9974;SDS011;5028;50.974;4.968;2022-11-20T06:37:08;26.23;;;20.57;;
9974;SDS011;5028;50.974;4.968;2022-11-20T06:39:39;28.90;;;20.77;;
9974;SDS011;5028;50.974;4.968;2022-11-20T06:42:13;26.07;;;20.33;;
9974;SDS011;5028;50.974;4.968;2022-11-20T06:44:43;25.80;;;19.93;;
9974;SDS011;5028;50.974;4.968;2022-11-20T06:47:18;25.20;;;20.43;;
9974;SDS011;5028;50.974;4.968;2022-11-20T06:49:46;27.80;;;19.60;;
9974;SDS011;5028;50.974;4.968;2022-11-20T06:52:21;25.17;;;19.67;;
9974;SDS011;5028;50.974;4.968;2022-11-20T06:54:49;27.33;;;20.53;;
9974;SDS011;5028;50.974;4.968;2022-11-20T06:57:24;27.53;;;20.07;;
9974;SDS011;5028;50.974;4.968;2022-11-20T07:00:01;26.50;;;20.00;;
9974;SDS011;5028;50.974;4.968;2022-11-20T07:02:35;24.17;;;19.60;;
9974;SDS011;5028;50.974;4.968;2022-11-20T07:05:11;26.70;;;19.80;;
9974;SDS011;5028;50.974;4.968;2022-11-20T07:07:46;24.43;;;20.07;;
9974;SDS011;5028;50.974;4.968;2022-11-20T07:10:14;27.80;;;21.20;;
9974;SDS011;5028;50.974;4.968;2022-11-20T07:12:49;24.50;;;20.13;;
9974;SDS011;5028;50.974;4.968;2022-11-20T07:15:20;27.67;;;20.37;;
9974;SDS011;5028;50.974;4.968;2022-11-20T07:17:58;27.93;;;20.73;;
9974;SDS011;5028;50.974;4.968;2022-11-20T07:20:26;27.30;;;20.53;;
9974;SDS011;5028;50.974;4.968;2022-11-20T07:23:01;27.33;;;20.30;;
9974;SDS011;5028;50.974;4.968;2022-11-20T07:25:30;26.67;;;21.07;;
9974;SDS011;5028;50.974;4.968;2022-11-20T07:28:05;32.20;;;24.40;;
9974;SDS011;5028;50.974;4.968;2022-11-20T07:30:35;35.10;;;29.57;;
9974;SDS011;5028;50.974;4.968;2022-11-20T07:33:10;27.00;;;21.37;;
9974;SDS011;5028;50.974;4.968;2022-11-20T07:35:39;25.83;;;21.00;;
9974;SDS011;5028;50.974;4.968;2022-11-20T07:38:13;26.10;;;20.30;;
9974;SDS011;5028;50.974;4.968;2022-11-20T07:40:42;33.53;;;25.60;;
9974;SDS011;5028;50.974;4.968;2022-11-20T07:43:16;26.73;;;21.83;;
9974;SDS011;5028;50.974;4.968;2022-11-20T07:45:46;27.60;;;22.47;;
9974;SDS011;5028;50.974;4.968;2022-11-20T07:48:20;28.50;;;21.57;;
9974;SDS011;5028;50.974;4.968;2022-11-20T07:50:49;27.57;;;21.53;;
9974;SDS011;5028;50.974;4.968;2022-11-20T07:53:26;30.63;;;22.17;;
9974;SDS011;5028;50.974;4.968;2022-11-20T07:55:55;28.00;;;21.67;;
9974;SDS011;5028;50.974;4.968;2022-11-20T07:58:40;25.90;;;20.10;;
9974;SDS011;5028;50.974;4.968;2022-11-20T08:01:23;27.57;;;21.17;;
9974;SDS011;5028;50.974;4.968;2022-11-20T08:03:57;26.53;;;20.20;;
9974;SDS011;5028;50.974;4.968;2022-11-20T08:06:26;29.03;;;20.47;;
9974;SDS011;5028;50.974;4.968;2022-11-20T08:09:00;25.97;;;19.40;;
9974;SDS011;5028;50.974;4.968;2022-11-20T08:11:29;29.97;;;22.00;;
9974;SDS011;5028;50.974;4.968;2022-11-20T08:14:20;30.27;;;20.50;;
9974;SDS011;5028;50.974;4.968;2022-11-20T08:16:50;28.17;;;21.90;;
9974;SDS011;5028;50.974;4.968;2022-11-20T08:19:26;27.20;;;20.10;;
9974;SDS011;5028;50.974;4.968;2022-11-20T08:21:54;31.13;;;21.70;;
9974;SDS011;5028;50.974;4.968;2022-11-20T08:24:29;30.27;;;22.00;;
9974;SDS011;5028;50.974;4.968;2022-11-20T08:26:58;27.67;;;20.63;;
9974;SDS011;5028;50.974;4.968;2022-11-20T08:29:32;27.23;;;20.87;;
9974;SDS011;5028;50.974;4.968;2022-11-20T08:32:03;28.40;;;21.70;;
9974;SDS011;5028;50.974;4.968;2022-11-20T08:34:39;29.20;;;21.27;;
9974;SDS011;5028;50.974;4.968;2022-11-20T08:37:08;31.47;;;21.07;;
9974;SDS011;5028;50.974;4.968;2022-11-20T08:39:43;30.13;;;21.33;;
9974;SDS011;5028;50.974;4.968;2022-11-20T08:42:13;30.57;;;21.47;;
9974;SDS011;5028;50.974;4.968;2022-11-20T08:44:49;32.27;;;21.67;;
9974;SDS011;5028;50.974;4.968;2022-11-20T08:47:19;33.33;;;22.83;;
9974;SDS011;5028;50.974;4.968;2022-11-20T08:49:53;35.90;;;22.57;;
9974;SDS011;5028;50.974;4.968;2022-11-20T08:52:22;32.93;;;22.80;;
9974;SDS011;5028;50.974;4.968;2022-11-20T08:54:59;36.03;;;22.93;;
9974;SDS011;5028;50.974;4.968;2022-11-20T08:57:28;34.43;;;23.03;;
9974;SDS011;5028;50.974;4.968;2022-11-20T09:00:13;38.63;;;23.83;;
9974;SDS011;5028;50.974;4.968;2022-11-20T09:02:44;38.23;;;24.20;;
9974;SDS011;5028;50.974;4.968;2022-11-20T09:05:19;32.43;;;22.33;;
9974;SDS011;5028;50.974;4.968;2022-11-20T09:07:47;34.37;;;21.97;;
9974;SDS011;5028;50.974;4.968;2022-11-20T09:10:21;37.83;;;23.37;;
9974;SDS011;5028;50.974;4.968;2022-11-20T09:12:50;35.27;;;22.77;;
9974;SDS011;5028;50.974;4.968;2022-11-20T09:15:26;34.50;;;22.73;;
9974;SDS011;5028;50.974;4.968;2022-11-20T09:17:56;33.03;;;22.50;;
9974;SDS011;5028;50.974;4.968;2022-11-20T09:20:31;33.60;;;22.73;;
9974;SDS011;5028;50.974;4.968;2022-11-20T09:23:00;34.20;;;22.07;;
9974;SDS011;5028;50.974;4.968;2022-11-20T09:25:34;35.83;;;23.10;;
9974;SDS011;5028;50.974;4.968;2022-11-20T09:28:03;35.47;;;21.93;;
9974;SDS011;5028;50.974;4.968;2022-11-20T09:30:38;39.40;;;24.07;;
9974;SDS011;5028;50.974;4.968;2022-11-20T09:33:07;32.80;;;22.90;;
9974;SDS011;5028;50.974;4.968;2022-11-20T09:35:42;37.20;;;24.57;;
9974;SDS011;5028;50.974;4.968;2022-11-20T09:38:11;39.27;;;24.83;;
9974;SDS011;5028;50.974;4.968;2022-11-20T09:40:49;38.50;;;25.67;;
9974;SDS011;5028;50.974;4.968;2022-11-20T09:43:25;40.10;;;24.27;;
9974;SDS011;5028;50.974;4.968;2022-11-20T09:46:09;38.03;;;25.37;;
9974;SDS011;5028;50.974;4.968;2022-11-20T09:48:45;40.97;;;24.93;;
9974;SDS011;5028;50.974;4.968;2022-11-20T09:51:33;40.10;;;25.37;;
9974;SDS011;5028;50.974;4.968;2022-11-20T09:54:15;43.07;;;25.47;;
9974;SDS011;5028;50.974;4.968;2022-11-20T09:57:08;41.17;;;25.07;;
9974;SDS011;5028;50.974;4.968;2022-11-20T09:59:40;37.30;;;24.63;;
9974;SDS011;5028;50.974;4.968;2022-11-20T10:02:25;44.47;;;24.43;;
9974;SDS011;5028;50.974;4.968;2022-11-20T10:04:59;38.53;;;22.97;;
9974;SDS011;5028;50.974;4.968;2022-11-20T10:07:40;43.67;;;25.33;;
9974;SDS011;5028;50.974;4.968;2022-11-20T10:10:15;42.07;;;24.33;;
9974;SDS011;5028;50.974;4.968;2022-11-20T10:12:55;44.67;;;24.97;;
9974;SDS011;5028;50.974;4.968;2022-11-20T10:15:38;42.70;;;24.30;;
9974;SDS011;5028;50.974;4.968;2022-11-20T10:18:22;42.97;;;24.60;;
9974;SDS011;5028;50.974;4.968;2022-11-20T10:21:01;43.60;;;24.90;;
9974;SDS011;5028;50.974;4.968;2022-11-20T10:23:45;42.77;;;23.83;;
9974;SDS011;5028;50.974;4.968;2022-11-20T10:26:26;44.40;;;25.60;;
9974;SDS011;5028;50.974;4.968;2022-11-20T10:29:12;45.83;;;24.50;;
9974;SDS011;5028;50.974;4.968;2022-11-20T10:31:43;41.33;;;23.80;;
9974;SDS011;5028;50.974;4.968;2022-11-20T10:34:21;40.20;;;23.40;;
9974;SDS011;5028;50.974;4.968;2022-11-20T10:36:56;38.20;;;22.83;;
9974;SDS011;5028;50.974;4.968;2022-11-20T10:39:36;41.03;;;24.40;;
9974;SDS011;5028;50.974;4.968;2022-11-20T10:42:10;40.23;;;23.43;;
9974;SDS011;5028;50.974;4.968;2022-11-20T10:44:51;44.10;;;24.23;;
9974;SDS011;5028;50.974;4.968;2022-11-20T10:47:32;40.00;;;23.23;;
9974;SDS011;5028;50.974;4.968;2022-11-20T10:50:09;41.13;;;23.90;;
9974;SDS011;5028;50.974;4.968;2022-11-20T10:52:51;38.20;;;23.77;;
9974;SDS011;5028;50.974;4.968;2022-11-20T10:55:33;39.73;;;23.93;;
9974;SDS011;5028;50.974;4.968;2022-11-20T10:58:09;39.30;;;23.03;;
9974;SDS011;5028;50.974;4.968;2022-11-20T11:01:02;39.10;;;23.50;;
9974;SDS011;5028;50.974;4.968;2022-11-20T11:03:31;39.03;;;23.07;;
9974;SDS011;5028;50.974;4.968;2022-11-20T11:06:07;38.67;;;23.40;;
9974;SDS011;5028;50.974;4.968;2022-11-20T11:08:42;40.70;;;23.53;;
9974;SDS011;5028;50.974;4.968;2022-11-20T11:11:20;36.10;;;22.10;;
9974;SDS011;5028;50.974;4.968;2022-11-20T11:13:50;37.67;;;23.17;;
9974;SDS011;5028;50.974;4.968;2022-11-20T11:16:26;38.17;;;22.57;;
9974;SDS011;5028;50.974;4.968;2022-11-20T11:19:03;38.57;;;22.53;;
9974;SDS011;5028;50.974;4.968;2022-11-20T11:21:38;38.03;;;23.70;;
9974;SDS011;5028;50.974;4.968;2022-11-20T11:24:22;35.97;;;21.70;;
9974;SDS011;5028;50.974;4.968;2022-11-20T11:27:13;37.37;;;22.50;;
9974;SDS011;5028;50.974;4.968;2022-11-20T11:29:44;33.63;;;21.27;;
9974;SDS011;5028;50.974;4.968;2022-11-20T11:32:20;35.73;;;22.50;;
9974;SDS011;5028;50.974;4.968;2022-11-20T11:34:58;31.57;;;21.13;;
9974;SDS011;5028;50.974;4.968;2022-11-20T11:37:34;33.47;;;20.73;;
9974;SDS011;5028;50.974;4.968;2022-11-20T11:40:08;32.27;;;19.73;;
9974;SDS011;5028;50.974;4.968;2022-11-20T11:42:52;30.83;;;20.23;;
9974;SDS011;5028;50.974;4.968;2022-11-20T11:45:23;28.90;;;18.87;;
9974;SDS011;5028;50.974;4.968;2022-11-20T11:48:00;29.63;;;19.70;;
9974;SDS011;5028;50.974;4.968;2022-11-20T11:50:35;27.77;;;17.80;;
9974;SDS011;5028;50.974;4.968;2022-11-20T11:53:12;26.80;;;17.77;;
9974;SDS011;5028;50.974;4.968;2022-11-20T11:55:46;26.40;;;17.43;;
9974;SDS011;5028;50.974;4.968;2022-11-20T11:58:34;23.67;;;16.37;;
9974;SDS011;5028;50.974;4.968;2022-11-20T12:01:26;22.73;;;15.37;;
9974;SDS011;5028;50.974;4.968;2022-11-20T12:04:09;22.90;;;15.80;;
9974;SDS011;5028;50.974;4.968;2022-11-20T12:06:45;19.07;;;13.37;;
9974;SDS011;5028;50.974;4.968;2022-11-20T12:09:46;19.27;;;12.97;;
9974;SDS011;5028;50.974;4.968;2022-11-20T12:12:27;17.80;;;12.20;;
9974;SDS011;5028;50.974;4.968;2022-11-20T12:15:01;15.13;;;10.73;;
9974;SDS011;5028;50.974;4.968;2022-11-20T12:17:38;13.50;;;7.83;;
9974;SDS011;5028;50.974;4.968;2022-11-20T12:20:13;10.67;;;6.63;;
9974;SDS011;5028;50.974;4.968;2022-11-20T12:22:44;8.03;;;6.03;;
9974;SDS011;5028;50.974;4.968;2022-11-20T12:25:26;9.10;;;4.93;;
9974;SDS011;5028;50.974;4.968;2022-11-20T12:31:14;7.40;;;3.90;;
9974;SDS011;5028;50.974;4.968;2022-11-20T12:34:16;4.73;;;2.60;;
9974;SDS011;5028;50.974;4.968;2022-11-20T12:36:58;6.03;;;2.63;;
9974;SDS011;5028;50.974;4.968;2022-11-20T12:39:41;5.53;;;2.50;;
9974;SDS011;5028;50.974;4.968;2022-11-20T12:42:28;4.47;;;2.37;;
9974;SDS011;5028;50.974;4.968;2022-11-20T12:51:47;5.30;;;2.70;;
9974;SDS011;5028;50.974;4.968;2022-11-20T12:54:26;4.30;;;2.30;;
9974;SDS011;5028;50.974;4.968;2022-11-20T12:57:16;4.30;;;2.03;;
9974;SDS011;5028;50.974;4.968;2022-11-20T12:59:56;5.10;;;2.43;;
9974;SDS011;5028;50.974;4.968;2022-11-20T13:05:57;5.67;;;2.27;;
9974;SDS011;5028;50.974;4.968;2022-11-20T13:08:40;5.33;;;3.07;;
9974;SDS011;5028;50.974;4.968;2022-11-20T13:11:12;8.27;;;2.90;;
9974;SDS011;5028;50.974;4.968;2022-11-20T13:14:00;3.77;;;2.67;;
9974;SDS011;5028;50.974;4.968;2022-11-20T13:16:36;3.93;;;2.20;;
9974;SDS011;5028;50.974;4.968;2022-11-20T13:19:17;3.87;;;2.10;;
9974;SDS011;5028;50.974;4.968;2022-11-20T13:21:48;8.23;;;2.40;;
9974;SDS011;5028;50.974;4.968;2022-11-20T13:24:25;4.53;;;1.90;;
9974;SDS011;5028;50.974;4.968;2022-11-20T13:27:00;4.43;;;2.30;;
9974;SDS011;5028;50.974;4.968;2022-11-20T13:29:40;4.20;;;2.43;;
9974;SDS011;5028;50.974;4.968;2022-11-20T13:32:13;6.63;;;2.57;;
9974;SDS011;5028;50.974;4.968;2022-11-20T13:34:52;6.30;;;2.67;;
9974;SDS011;5028;50.974;4.968;2022-11-20T13:37:27;6.20;;;2.33;;
9974;SDS011;5028;50.974;4.968;2022-11-20T13:40:20;5.73;;;2.30;;
9974;SDS011;5028;50.974;4.968;2022-11-20T13:43:01;6.90;;;2.40;;
9974;SDS011;5028;50.974;4.968;2022-11-20T13:45:42;6.03;;;2.20;;
9974;SDS011;5028;50.974;4.968;2022-11-20T13:48:22;7.87;;;2.80;;
9974;SDS011;5028;50.974;4.968;2022-11-20T13:51:06;3.20;;;2.50;;
9974;SDS011;5028;50.974;4.968;2022-11-20T13:53:48;5.33;;;2.23;;
9974;SDS011;5028;50.974;4.968;2022-11-20T13:56:40;4.03;;;2.10;;
9974;SDS011;5028;50.974;4.968;2022-11-20T13:59:23;6.20;;;2.50;;
9974;SDS011;5028;50.974;4.968;2022-11-20T14:02:10;5.20;;;2.40;;
9974;SDS011;5028;50.974;4.968;2022-11-20T14:04:46;7.33;;;2.60;;
9974;SDS011;5028;50.974;4.968;2022-11-20T14:07:23;4.53;;;2.37;;
9974;SDS011;5028;50.974;4.968;2022-11-20T14:09:56;3.27;;;2.27;;
9974;SDS011;5028;50.974;4.968;2022-11-20T14:12:32;4.57;;;2.20;;
9974;SDS011;5028;50.974;4.968;2022-11-20T14:15:03;6.57;;;2.60;;
9974;SDS011;5028;50.974;4.968;2022-11-20T14:17:38;5.50;;;2.70;;
9974;SDS011;5028;50.974;4.968;2022-11-20T14:20:06;3.57;;;2.53;;
9974;SDS011;5028;50.974;4.968;2022-11-20T14:22:48;6.63;;;2.37;;
9974;SDS011;5028;50.974;4.968;2022-11-20T14:25:22;5.20;;;2.50;;
9974;SDS011;5028;50.974;4.968;2022-11-20T14:28:00;4.57;;;2.57;;
9974;SDS011;5028;50.974;4.968;2022-11-20T14:30:36;4.83;;;2.30;;
9974;SDS011;5028;50.974;4.968;2022-11-20T14:33:13;6.57;;;2.43;;
9974;SDS011;5028;50.974;4.968;2022-11-20T14:35:44;5.10;;;2.57;;
9974;SDS011;5028;50.974;4.968;2022-11-20T14:38:22;4.83;;;2.60;;
9974;SDS011;5028;50.974;4.968;2022-11-20T14:40:54;4.93;;;2.57;;
9974;SDS011;5028;50.974;4.968;2022-11-20T14:43:40;4.50;;;2.33;;
9974;SDS011;5028;50.974;4.968;2022-11-20T14:46:14;4.80;;;2.40;;
9974;SDS011;5028;50.974;4.968;2022-11-20T14:48:49;5.77;;;2.30;;
9974;SDS011;5028;50.974;4.968;2022-11-20T14:51:29;5.07;;;2.43;;
9974;SDS011;5028;50.974;4.968;2022-11-20T14:54:08;4.67;;;2.27;;
9974;SDS011;5028;50.974;4.968;2022-11-20T14:56:39;3.60;;;2.27;;
9974;SDS011;5028;50.974;4.968;2022-11-20T14:59:22;8.70;;;2.47;;
9974;SDS011;5028;50.974;4.968;2022-11-20T15:02:05;4.43;;;2.30;;
9974;SDS011;5028;50.974;4.968;2022-11-20T15:04:44;3.80;;;2.20;;
9974;SDS011;5028;50.974;4.968;2022-11-20T15:07:22;7.30;;;2.43;;
9974;SDS011;5028;50.974;4.968;2022-11-20T15:10:00;4.33;;;2.23;;
9974;SDS011;5028;50.974;4.968;2022-11-20T15:12:31;4.73;;;2.50;;
9974;SDS011;5028;50.974;4.968;2022-11-20T15:15:08;4.47;;;2.40;;
9974;SDS011;5028;50.974;4.968;2022-11-20T15:17:39;3.37;;;2.50;;
9974;SDS011;5028;50.974;4.968;2022-11-20T15:20:16;2.63;;;2.17;;
9974;SDS011;5028;50.974;4.968;2022-11-20T15:22:44;4.07;;;2.10;;
9974;SDS011;5028;50.974;4.968;2022-11-20T15:25:20;4.73;;;3.63;;
9974;SDS011;5028;50.974;4.968;2022-11-20T15:27:53;4.10;;;2.60;;
9974;SDS011;5028;50.974;4.968;2022-11-20T15:30:30;5.27;;;4.17;;
9974;SDS011;5028;50.974;4.968;2022-11-20T15:32:58;3.87;;;3.07;;
9974;SDS011;5028;50.974;4.968;2022-11-20T15:35:33;6.37;;;4.53;;
9974;SDS011;5028;50.974;4.968;2022-11-20T15:38:02;3.80;;;2.97;;
9974;SDS011;5028;50.974;4.968;2022-11-20T15:40:38;3.00;;;2.70;;
9974;SDS011;5028;50.974;4.968;2022-11-20T15:43:09;3.20;;;2.20;;
9974;SDS011;5028;50.974;4.968;2022-11-20T15:45:44;4.30;;;2.70;;
9974;SDS011;5028;50.974;4.968;2022-11-20T15:48:16;3.40;;;2.90;;
9974;SDS011;5028;50.974;4.968;2022-11-20T15:50:54;4.67;;;3.00;;
9974;SDS011;5028;50.974;4.968;2022-11-20T15:53:26;4.07;;;2.70;;